Time;durP1;ratioP1;P1;durP2;ratioP2;P2;SDS_P1;SDS_P2;PMS_P1;PMS_P2;Temp;Humidity;BMP_temperature;BMP_pressure;BME280_temperature;BME280_humidity;BME280_pressure;Samples;Min_cycle;Max_cycle;Signal;HPM_P1;HPM_P2
2022/02/20 00:01:45;;;;;;;6.60;1.80;;;;;;;15.09;82.16;100731.22;4915856;29;20047;-51
2022/02/20 00:04:11;;;;;;;9.38;2.25;;;;;;;15.02;84.24;100715.97;4901824;29;20045;-49
2022/02/20 00:06:37;;;;;;;16.27;2.03;;;;;;;15.26;83.20;100726.00;4901369;29;20065;-48
2022/02/20 00:09:04;;;;;;;7.32;1.90;;;;;;;15.71;78.89;100759.75;4910591;29;20033;-48
2022/02/20 00:11:29;;;;;;;14.73;2.78;;;;;;;15.75;77.79;100769.00;4907081;29;20041;-54
2022/02/20 00:13:55;;;;;;;24.00;3.43;;;;;;;16.60;70.94;100771.50;4907765;29;20226;-51
2022/02/20 00:16:21;;;;;;;15.77;2.30;;;;;;;16.51;70.63;100776.47;4909217;29;20344;-53
2022/02/20 00:18:48;;;;;;;8.40;2.28;;;;;;;16.98;67.62;100778.25;4911818;29;20040;-50
2022/02/20 00:21:13;;;;;;;;;;;;;;;16.88;69.48;100788.84;4910694;29;20052;-50
2022/02/20 00:23:39;;;;;;;10.07;1.77;;;;;;;15.85;69.29;100800.81;4910264;29;19951;-51
2022/02/20 00:26:04;;;;;;;10.90;1.73;;;;;;;15.39;74.23;100809.34;4909384;29;20036;-53
2022/02/20 00:28:30;;;;;;;8.17;1.83;;;;;;;14.77;79.86;100808.44;4909157;29;20096;-48
2022/02/20 00:30:55;;;;;;;11.07;2.30;;;;;;;15.52;76.84;100810.19;4898547;29;20311;-51
2022/02/20 00:33:21;;;;;;;11.83;1.87;;;;;;;15.86;72.21;100816.75;4894381;29;20044;-51
2022/02/20 00:35:46;;;;;;;9.83;2.27;;;;;;;15.77;73.59;100823.53;4891446;29;20104;-48
2022/02/20 00:38:13;;;;;;;13.95;1.65;;;;;;;16.20;68.41;100830.56;4901047;29;20041;-48
2022/02/20 00:40:38;;;;;;;11.90;2.13;;;;;;;16.49;65.93;100837.94;4918991;29;20028;-49
2022/02/20 00:43:05;;;;;;;12.65;1.90;;;;;;;15.08;75.79;100835.41;4909930;29;20036;-52
2022/02/20 00:45:31;;;;;;;9.15;2.00;;;;;;;15.61;76.11;100850.06;4913170;29;20041;-50
2022/02/20 00:47:57;;;;;;;10.63;3.30;;;;;;;16.76;67.94;100864.47;4886568;29;20037;-49
2022/02/20 00:50:24;;;;;;;10.85;1.48;;;;;;;15.52;72.55;100869.50;4904277;29;20037;-48
2022/02/20 00:52:50;;;;;;;10.80;2.28;;;;;;;16.55;65.12;100877.50;4911022;29;20052;-47
2022/02/20 00:55:16;;;;;;;12.15;1.90;;;;;;;17.31;61.94;100871.34;4910243;29;20052;-49
2022/02/20 00:57:41;;;;;;;10.43;1.97;;;;;;;16.66;65.56;100892.06;4905382;29;20040;-50
2022/02/20 01:00:10;;;;;;;9.82;1.77;;;;;;;16.25;66.15;100888.38;4899112;29;20287;-49
2022/02/20 01:02:37;;;;;;;7.25;1.67;;;;;;;15.76;73.62;100897.38;4889063;29;20095;-47
2022/02/20 01:05:03;;;;;;;9.20;1.75;;;;;;;16.08;70.78;100894.44;4909012;29;20121;-53
2022/02/20 01:07:30;;;;;;;17.83;3.15;;;;;;;15.83;71.36;100902.69;4896162;29;20041;-49
2022/02/20 01:09:55;;;;;;;12.27;2.07;;;;;;;16.57;65.62;100904.25;4887082;29;20104;-46
2022/02/20 01:12:21;;;;;;;7.40;3.22;;;;;;;14.92;77.24;100904.16;4915742;29;20073;-50
2022/02/20 01:14:47;;;;;;;5.60;1.87;;;;;;;15.40;74.79;100907.16;4890795;29;20044;-50
2022/02/20 01:17:14;;;;;;;13.38;1.80;;;;;;;15.43;76.09;100912.94;4892250;29;20044;-47
2022/02/20 01:19:41;;;;;;;19.17;2.10;;;;;;;15.87;67.86;100909.25;4913930;29;20051;-51
2022/02/20 01:22:06;;;;;;;4.35;1.77;;;;;;;17.61;60.25;100924.34;4886963;29;20040;-51
2022/02/20 01:24:33;;;;;;;6.93;1.38;;;;;;;15.85;65.04;100924.84;4897048;29;20061;-50
2022/02/20 01:27:00;;;;;;;10.93;1.50;;;;;;;15.09;73.35;100923.25;4908338;29;20051;-52
2022/02/20 01:29:26;;;;;;;11.68;2.08;;;;;;;16.32;66.74;100925.00;4906075;29;20065;-50
2022/02/20 01:31:55;;;;;;;3.07;1.17;;;;;;;16.17;65.72;100927.31;4915275;29;20037;-48
2022/02/20 01:34:21;;;;;;;6.93;1.33;;;;;;;15.69;65.70;100932.50;4904899;29;20032;-50
2022/02/20 01:36:47;;;;;;;3.75;1.30;;;;;;;16.03;67.71;100937.47;4905245;29;20045;-47
2022/02/20 01:39:18;;;;;;;10.00;1.42;;;;;;;16.20;65.05;100938.47;4916044;29;20041;-49
2022/02/20 01:41:44;;;;;;;8.10;1.55;;;;;;;14.88;78.35;100935.28;4905395;29;20072;-46
2022/02/20 01:44:09;;;;;;;6.00;1.80;;;;;;;14.36;79.35;100930.94;4919538;29;20045;-50
2022/02/20 01:46:43;;;;;;;11.52;1.45;;;;;;;15.93;72.45;100938.03;4892314;29;20040;-46
2022/02/20 01:49:12;;;;;;;9.77;2.17;;;;;;;15.42;74.24;100946.31;4906029;29;20071;-47
2022/02/20 01:51:38;;;;;;;7.75;1.40;;;;;;;15.40;73.79;100943.03;4899954;29;20100;-49
2022/02/20 01:54:05;;;;;;;8.02;1.60;;;;;;;16.30;67.45;100954.09;4902930;29;20081;-52
2022/02/20 01:56:32;;;;;;;6.15;1.60;;;;;;;16.05;68.50;100949.69;4910889;29;20147;-47
2022/02/20 01:59:18;;;;;;;11.27;2.03;;;;;;;15.22;72.08;100961.88;4897794;29;20089;-52
2022/02/20 02:01:54;;;;;;;5.93;1.02;;;;;;;15.76;73.15;100954.81;4905189;29;20105;-53
2022/02/20 02:04:40;;;;;;;7.18;1.42;;;;;;;15.77;68.88;100948.38;4911433;29;20055;-48
2022/02/20 02:07:11;;;;;;;5.03;0.93;;;;;;;15.42;74.74;100965.19;4914241;29;20077;-50
2022/02/20 02:09:59;;;;;;;9.13;1.08;;;;;;;14.36;77.99;100968.59;4920826;29;20071;-48
2022/02/20 02:12:38;;;;;;;5.63;1.27;;;;;;;15.32;72.10;100976.47;4894842;29;20111;-51
2022/02/20 02:15:14;;;;;;;12.50;1.40;;;;;;;14.72;76.01;100960.91;4898453;29;20073;-48
2022/02/20 02:17:39;;;;;;;5.40;1.20;;;;;;;15.78;69.87;100968.06;4919441;29;20077;-49
2022/02/20 02:20:16;;;;;;;10.30;1.80;;;;;;;15.49;71.80;100957.03;4892638;29;20076;-45
2022/02/20 02:23:00;;;;;;;3.22;0.95;;;;;;;15.75;68.67;100971.22;4915602;29;20041;-47
2022/02/20 02:25:37;;;;;;;5.95;0.80;;;;;;;16.51;65.28;100959.19;4918900;29;20044;-48
2022/02/20 02:28:21;;;;;;;7.32;1.20;;;;;;;16.58;62.78;100962.59;4907524;29;20051;-47
2022/02/20 02:30:53;;;;;;;4.85;1.10;;;;;;;16.24;64.88;100968.50;4912767;29;20096;-47
2022/02/20 02:33:31;;;;;;;12.52;1.77;;;;;;;16.55;61.78;100957.66;4912907;29;20049;-49
2022/02/20 02:35:58;;;;;;;7.88;1.67;;;;;;;15.61;62.00;100954.41;4921420;29;20040;-45
2022/02/20 02:38:27;;;;;;;8.00;2.17;;;;;;;14.63;67.57;100965.69;4893031;29;20040;-45
2022/02/20 02:40:57;;;;;;;5.47;0.98;;;;;;;15.99;64.02;100963.28;4916345;29;20059;-49
2022/02/20 02:43:23;;;;;;;8.30;1.20;;;;;;;16.02;60.92;100963.63;4900633;29;20068;-47
2022/02/20 02:45:52;;;;;;;26.92;6.07;;;;;;;15.74;62.73;100964.19;4891040;29;20036;-47
2022/02/20 02:48:17;;;;;;;39.80;8.80;;;;;;;15.03;68.54;100960.00;4901696;29;20037;-50
2022/02/20 02:50:45;;;;;;;14.00;3.73;;;;;;;15.91;64.30;100951.75;4907955;29;20032;-50
2022/02/20 02:53:11;;;;;;;16.75;4.22;;;;;;;15.10;69.85;100953.72;4911193;29;20045;-46
2022/02/20 02:55:37;;;;;;;7.75;2.22;;;;;;;14.93;69.67;100948.91;4899267;29;20048;-48
2022/02/20 02:58:04;;;;;;;13.13;2.10;;;;;;;15.29;68.79;100944.59;4905753;29;20037;-47
2022/02/20 03:00:33;;;;;;;12.10;3.15;;;;;;;15.23;69.54;100939.28;4901557;29;20052;-48
2022/02/20 03:03:00;;;;;;;10.30;2.30;;;;;;;14.98;71.54;100949.03;4910629;29;20040;-47
2022/02/20 03:05:26;;;;;;;10.38;1.63;;;;;;;15.01;70.78;100959.41;4909734;29;20037;-48
2022/02/20 03:07:52;;;;;;;5.97;2.25;;;;;;;14.86;71.66;100961.59;4901148;29;20049;-47
2022/02/20 03:10:21;;;;;;;4.53;1.48;;;;;;;14.07;78.26;100960.09;4905707;29;20084;-47
2022/02/20 03:12:47;;;;;;;7.43;1.05;;;;;;;14.88;73.06;100954.97;4914803;29;20048;-52
2022/02/20 03:15:13;;;;;;;15.97;1.37;;;;;;;14.59;71.54;100945.66;4895735;29;20040;-47
2022/02/20 03:17:39;;;;;;;3.17;1.25;;;;;;;14.50;72.77;100939.72;4901668;29;20040;-47
2022/02/20 03:20:07;;;;;;;;;;;;;;;14.71;76.83;100943.91;4917430;29;20044;-48
2022/02/20 03:22:35;;;;;;;7.30;1.20;;;;;;;14.98;72.85;100938.28;4890627;29;19919;-47
2022/02/20 03:25:00;;;;;;;6.57;1.30;;;;;;;15.22;70.32;100927.66;4896343;29;20052;-46
2022/02/20 03:27:26;;;;;;;8.52;1.52;;;;;;;15.13;69.51;100934.41;4913520;29;20100;-51
2022/02/20 03:29:56;;;;;;;25.73;2.00;;;;;;;14.34;76.52;100919.56;4904791;29;20033;-49
2022/02/20 03:32:22;;;;;;;6.30;1.50;;;;;;;14.06;81.09;100928.84;4901076;29;20056;-51
2022/02/20 03:34:47;;;;;;;11.40;2.20;;;;;;;14.41;81.29;100919.50;4891822;29;20084;-51
2022/02/20 03:37:13;;;;;;;9.93;1.97;;;;;;;14.66;76.81;100916.81;4911265;29;20045;-50
2022/02/20 03:39:39;;;;;;;;;;;;;;;15.19;73.11;100922.72;4898698;29;20347;-47
2022/02/20 03:42:07;;;;;;;;;;;;;;;14.65;77.03;100917.84;4888928;29;19975;-51
2022/02/20 03:44:55;;;;;;;9.60;1.80;;;;;;;14.61;75.04;100911.28;4897101;29;19920;-51
2022/02/20 03:47:22;;;;;;;7.63;2.15;;;;;;;15.13;73.67;100907.47;4896256;29;20036;-50
2022/02/20 03:49:54;;;;;;;16.40;2.25;;;;;;;14.61;74.83;100919.34;4905058;29;20110;-52
2022/02/20 03:52:41;;;;;;;6.05;1.92;;;;;;;13.98;81.07;100902.22;4887393;29;20061;-47
2022/02/20 03:55:13;;;;;;;7.82;1.80;;;;;;;14.45;72.98;100900.00;4888331;29;20061;-50
2022/02/20 03:57:43;;;;;;;4.53;1.80;;;;;;;14.49;76.85;100898.50;4895246;29;20124;-47
2022/02/20 04:00:21;;;;;;;5.85;1.60;;;;;;;14.08;80.54;100891.81;4901414;29;20112;-51
2022/02/20 04:03:25;;;;;;;10.90;1.77;;;;;;;14.63;72.97;100898.41;4880645;29;20052;-49
2022/02/20 04:05:53;;;;;;;13.27;2.55;;;;;;;14.11;73.92;100901.31;4896553;29;20037;-49
2022/02/20 04:08:21;;;;;;;16.90;3.70;;;;;;;13.78;81.03;100895.09;4898030;29;20042;-50
2022/02/20 04:10:50;;;;;;;15.02;3.78;;;;;;;13.83;80.73;100900.63;4903998;29;20033;-45
2022/02/20 04:13:25;;;;;;;12.90;5.28;;;;;;;13.40;85.14;100912.00;4889665;29;20049;-47
2022/02/20 04:15:52;;;;;;;12.30;3.78;;;;;;;13.87;83.23;100906.41;4896280;29;20465;-49
2022/02/20 04:18:24;;;;;;;11.75;3.83;;;;;;;13.69;82.71;100893.69;4900451;29;20036;-47
2022/02/20 04:21:04;;;;;;;11.20;3.67;;;;;;;13.22;87.86;100897.38;4892377;29;20038;-50
2022/02/20 04:23:31;;;;;;;;;;;;;;;13.64;87.11;100880.91;4909290;29;20051;-46
2022/02/20 04:26:01;;;;;;;23.42;4.15;;;;;;;13.58;87.70;100877.19;4903879;29;19975;-47
2022/02/20 04:28:32;;;;;;;12.57;4.68;;;;;;;13.13;91.98;100869.09;4900260;29;20040;-47
2022/02/20 04:30:59;;;;;;;14.30;5.03;;;;;;;13.29;94.80;100871.31;4904567;29;20167;-46
2022/02/20 04:33:25;;;;;;;9.13;4.15;;;;;;;14.27;82.96;100860.44;4897021;29;20072;-46
2022/02/20 04:35:55;;;;;;;11.85;4.85;;;;;;;13.60;86.24;100858.19;4893043;29;20490;-50
2022/02/20 04:38:22;;;;;;;16.50;6.03;;;;;;;13.39;97.46;100859.31;4900156;29;20052;-46
2022/02/20 04:40:47;;;;;;;18.52;6.53;;;;;;;13.99;89.81;100848.22;4894159;29;20472;-48
2022/02/20 04:43:17;;;;;;;19.20;6.82;;;;;;;14.69;82.60;100842.88;4890990;29;20048;-50
2022/02/20 04:45:45;;;;;;;14.77;7.00;;;;;;;14.28;85.81;100829.78;4899877;29;20041;-47
2022/02/20 04:48:15;;;;;;;13.95;6.78;;;;;;;14.38;88.15;100818.53;4899773;29;20060;-48
2022/02/20 04:50:41;;;;;;;16.90;6.28;;;;;;;14.62;84.42;100814.13;4894855;29;20033;-47
2022/02/20 04:53:12;;;;;;;20.70;7.28;;;;;;;14.87;82.35;100821.34;4890079;29;20045;-48
2022/02/20 04:55:40;;;;;;;19.60;7.25;;;;;;;14.97;83.14;100807.38;4902867;29;20049;-47
2022/02/20 04:58:06;;;;;;;20.63;8.63;;;;;;;14.86;84.79;100808.13;4897122;29;20077;-51
2022/02/20 05:00:31;;;;;;;24.13;8.18;;;;;;;14.88;82.75;100800.66;4884694;29;20286;-47
2022/02/20 05:03:01;;;;;;;21.13;8.32;;;;;;;14.63;93.78;100793.44;4892244;29;20109;-48
2022/02/20 05:05:41;;;;;;;18.55;7.85;;;;;;;14.74;91.38;100781.94;4893668;29;20048;-50
2022/02/20 05:08:08;;;;;;;26.45;8.45;;;;;;;14.81;89.80;100781.06;4883689;29;20053;-49
2022/02/20 05:10:35;;;;;;;26.67;9.20;;;;;;;15.15;83.06;100776.09;4895234;29;20033;-53
2022/02/20 05:13:00;;;;;;;23.65;8.80;;;;;;;14.08;92.10;100761.91;4903705;29;20176;-51
2022/02/20 05:15:26;;;;;;;24.27;9.30;;;;;;;13.96;96.86;100756.44;4896375;29;20041;-48
2022/02/20 05:17:55;;;;;;;24.30;9.05;;;;;;;14.16;98.50;100750.88;4892170;29;20041;-50
2022/02/20 05:20:21;;;;;;;21.65;9.77;;;;;;;13.86;100.00;100741.63;4897501;29;20049;-49
2022/02/20 05:22:51;;;;;;;28.15;10.57;;;;;;;13.55;100.00;100743.28;4908955;29;20037;-47
2022/02/20 05:25:17;;;;;;;40.27;11.93;;;;;;;13.95;100.00;100727.91;4889936;29;20059;-49
2022/02/20 05:27:45;;;;;;;26.48;10.68;;;;;;;13.83;100.00;100711.66;4887200;29;20065;-53
2022/02/20 05:30:13;;;;;;;37.70;11.13;;;;;;;13.40;100.00;100699.78;4911519;29;20044;-51
2022/02/20 05:32:40;;;;;;;27.20;11.85;;;;;;;13.36;100.00;100680.59;4894604;29;20066;-49
2022/02/20 05:35:19;;;;;;;29.08;11.45;;;;;;;13.69;100.00;100657.22;4881607;29;20083;-48
2022/02/20 05:37:46;;;;;;;;;;;;;;;13.97;100.00;100643.31;4890475;29;20069;-48
2022/02/20 05:40:17;;;;;;;47.50;12.50;;;;;;;13.22;100.00;100631.53;4909423;29;19927;-50
2022/02/20 05:42:57;;;;;;;25.67;11.60;;;;;;;13.69;100.00;100624.97;4887070;29;20044;-47
2022/02/20 05:45:26;;;;;;;32.10;10.68;;;;;;;13.41;100.00;100628.91;4914671;29;20037;-49
2022/02/20 05:47:54;;;;;;;45.92;13.00;;;;;;;13.49;100.00;100609.84;4884991;29;20041;-50
2022/02/20 05:50:23;;;;;;;47.25;12.27;;;;;;;13.81;100.00;100607.06;4911251;29;20093;-50
2022/02/20 05:52:49;;;;;;;35.17;11.50;;;;;;;13.26;100.00;100589.75;4886130;29;20047;-48
2022/02/20 05:55:19;;;;;;;29.73;9.73;;;;;;;13.52;100.00;100581.72;4889338;29;20061;-51
2022/02/20 05:57:47;;;;;;;39.30;10.68;;;;;;;14.11;100.00;100586.69;4893181;29;20152;-52
2022/02/20 06:00:18;;;;;;;48.85;10.70;;;;;;;13.20;100.00;100578.03;4883246;29;20041;-53
2022/02/20 06:02:54;;;;;;;32.03;10.02;;;;;;;14.72;100.00;100606.41;4893759;29;20053;-52
2022/02/20 06:05:24;;;;;;;29.85;9.55;;;;;;;11.27;100.00;100587.47;4890607;29;20029;-51
2022/02/20 06:08:16;;;;;;;40.83;8.77;;;;;;;12.05;100.00;100585.91;4884233;29;20053;-51
2022/02/20 06:10:50;;;;;;;32.92;9.48;;;;;;;14.36;100.00;100586.59;4893291;29;20038;-50
2022/02/20 06:13:48;;;;;;;33.40;8.13;;;;;;;13.57;100.00;100573.81;4851899;29;20053;-49
2022/02/20 06:16:50;;;;;;;32.95;8.25;;;;;;;13.41;100.00;100559.06;4812185;29;20087;-54
2022/02/20 06:19:27;;;;;;;;;;;;;;;12.76;100.00;100561.84;4878197;29;20053;-49
2022/02/20 06:22:25;;;;;;;41.85;10.23;;;;;;;12.56;100.00;100559.28;4876082;29;19941;-53
2022/02/20 06:25:10;;;;;;;43.55;8.43;;;;;;;12.71;100.00;100569.72;4894972;29;20044;-55
2022/02/20 06:27:56;;;;;;;38.42;11.63;;;;;;;12.91;100.00;100553.47;4898113;29;20048;-51
2022/02/20 06:30:27;;;;;;;42.45;8.27;;;;;;;11.32;100.00;100558.22;4902161;29;20036;-51
2022/02/20 06:32:53;;;;;;;48.10;10.87;;;;;;;10.62;100.00;100545.22;4897075;29;20041;-52
2022/02/20 06:35:20;;;;;;;47.00;10.80;;;;;;;10.62;100.00;100553.25;4892828;29;20041;-51
2022/02/20 06:37:46;;;;;;;;;;;;;;;10.50;100.00;100553.03;4889609;29;20041;-50
2022/02/20 06:40:12;;;;;;;30.13;9.20;;;;;;;12.30;100.00;100544.16;4898639;29;19944;-53
2022/02/20 06:42:37;;;;;;;38.37;11.90;;;;;;;11.33;100.00;100554.53;4902747;29;20033;-51
2022/02/20 06:45:13;;;;;;;47.67;13.60;;;;;;;10.74;100.00;100551.63;4893588;29;20033;-52
2022/02/20 06:47:59;;;;;;;37.00;11.90;;;;;;;10.55;100.00;100545.22;4898315;29;20425;-50
2022/02/20 06:50:44;;;;;;;25.63;9.50;;;;;;;10.66;100.00;100549.16;4870166;29;20062;-54
2022/02/20 06:53:24;;;;;;;36.45;8.05;;;;;;;10.68;100.00;100539.06;4894450;29;20057;-57
2022/02/20 06:56:02;;;;;;;45.35;10.30;;;;;;;10.70;100.00;100542.34;4905786;29;20044;-51
2022/02/20 06:58:27;;;;;;;38.40;9.77;;;;;;;11.07;100.00;100535.78;4901585;29;20041;-53
2022/02/20 07:00:53;;;;;;;35.33;7.25;;;;;;;11.20;100.00;100530.44;4908298;29;20036;-55
2022/02/20 07:03:18;;;;;;;1.53;1.43;;;;;;;11.19;100.00;100529.63;4911828;29;20049;-53
2022/02/20 07:05:44;;;;;;;1.08;1.05;;;;;;;11.23;100.00;100532.69;4914901;29;20271;-50
2022/02/20 07:08:10;;;;;;;0.10;0.10;;;;;;;12.18;100.00;100525.25;4905421;29;20061;-48
2022/02/20 07:10:35;;;;;;;1.30;1.23;;;;;;;12.23;100.00;100544.19;4920810;29;20052;-53
2022/02/20 07:13:01;;;;;;;0.20;0.20;;;;;;;12.60;100.00;100528.31;4913927;29;20041;-54
2022/02/20 07:15:26;;;;;;;0.67;0.67;;;;;;;11.95;100.00;100541.81;4912201;29;20051;-54
2022/02/20 07:17:52;;;;;;;3.43;2.23;;;;;;;12.32;100.00;100529.50;4920670;29;20433;-53
2022/02/20 07:20:18;;;;;;;14.10;1.38;;;;;;;12.01;100.00;100560.56;4904887;29;20299;-53
2022/02/20 07:22:45;;;;;;;0.20;0.20;;;;;;;11.96;100.00;100536.25;4916135;29;20049;-53
2022/02/20 07:25:12;;;;;;;0.20;0.20;;;;;;;12.72;100.00;100515.03;4909283;29;20043;-48
2022/02/20 07:27:42;;;;;;;1.88;1.77;;;;;;;12.48;100.00;100525.50;4915598;29;20044;-47
2022/02/20 07:30:11;;;;;;;0.20;0.20;;;;;;;12.90;100.00;100516.13;4911439;29;20053;-49
2022/02/20 07:32:36;;;;;;;1.90;1.80;;;;;;;17.84;100.00;100530.41;4910855;29;20067;-48
2022/02/20 07:35:03;;;;;;;0.23;0.23;;;;;;;17.48;100.00;100514.53;4907399;29;20036;-51
2022/02/20 07:37:29;;;;;;;1.02;0.73;;;;;;;17.13;100.00;100518.34;4912309;29;20032;-51
2022/02/20 07:39:58;;;;;;;1.45;1.17;;;;;;;18.38;100.00;100520.72;4912505;29;20097;-53
2022/02/20 07:42:24;;;;;;;0.20;0.20;;;;;;;17.70;100.00;100499.38;4910492;29;20043;-53
2022/02/20 07:44:49;;;;;;;0.40;0.40;;;;;;;17.54;100.00;100501.91;4911604;29;20060;-51
2022/02/20 07:47:15;;;;;;;0.50;0.50;;;;;;;17.65;100.00;100502.03;4897423;29;20282;-51
2022/02/20 07:49:40;;;;;;;1.63;1.53;;;;;;;17.31;100.00;100502.94;4911178;29;20028;-51
2022/02/20 07:52:06;;;;;;;1.23;1.17;;;;;;;17.39;100.00;100501.69;4911153;29;20287;-53
2022/02/20 07:54:32;;;;;;;0.30;0.30;;;;;;;17.04;100.00;100480.13;4911535;29;20056;-53
2022/02/20 07:56:59;;;;;;;0.68;0.68;;;;;;;17.09;100.00;100473.19;4910631;29;20040;-51
2022/02/20 07:59:25;;;;;;;0.10;0.10;;;;;;;17.03;100.00;100480.38;4912765;29;20048;-50
2022/02/20 08:01:52;;;;;;;0.20;0.20;;;;;;;17.19;100.00;100490.34;4900250;29;20077;-51
2022/02/20 08:04:17;;;;;;;0.35;0.35;;;;;;;17.96;100.00;100481.56;4910665;29;20037;-51
2022/02/20 08:06:43;;;;;;;1.17;1.03;;;;;;;16.97;100.00;100501.06;4910743;29;20065;-49
2022/02/20 08:09:09;;;;;;;0.10;0.10;;;;;;;17.54;100.00;100474.88;4907732;29;20355;-52
2022/02/20 08:11:34;;;;;;;2.13;1.10;;;;;;;17.79;100.00;100470.84;4911890;29;20037;-55
2022/02/20 08:14:00;;;;;;;0.40;0.40;;;;;;;16.92;100.00;100463.97;4909626;29;20280;-52
2022/02/20 08:16:26;;;;;;;1.55;1.48;;;;;;;17.18;100.00;100463.56;4911754;29;20044;-51
2022/02/20 08:18:52;;;;;;;;;;;;;;;18.05;100.00;100468.44;4911317;29;20065;-51
2022/02/20 08:21:18;;;;;;;0.40;0.40;;;;;;;16.91;100.00;100458.84;4912937;29;19922;-53
2022/02/20 08:23:47;;;;;;;0.55;0.55;;;;;;;17.15;100.00;100461.38;4912865;29;20105;-49
2022/02/20 08:26:13;;;;;;;0.57;0.57;;;;;;;17.87;100.00;100440.63;4909065;29;20044;-54
2022/02/20 08:28:40;;;;;;;2.42;1.38;;;;;;;17.29;100.00;100456.44;4909779;29;20032;-54
2022/02/20 08:31:05;;;;;;;;;;;;;;;17.54;100.00;100450.53;4912537;29;20032;-52
2022/02/20 08:33:30;;;;;;;1.80;1.70;;;;;;;17.97;100.00;100466.16;4908758;29;19916;-52
2022/02/20 08:35:56;;;;;;;0.23;0.23;;;;;;;17.99;100.00;100483.78;4910941;29;20485;-50
2022/02/20 08:38:21;;;;;;;1.00;0.87;;;;;;;18.10;100.00;100494.72;4911269;29;20044;-51
2022/02/20 08:40:49;;;;;;;0.47;0.47;;;;;;;17.69;100.00;100476.13;4909624;29;20097;-53
2022/02/20 08:43:14;;;;;;;0.22;0.22;;;;;;;17.46;100.00;100475.28;4911379;29;20063;-54
2022/02/20 08:45:40;;;;;;;24.02;7.05;;;;;;;17.46;100.00;100464.47;4912272;29;20044;-50
2022/02/20 08:48:05;;;;;;;26.30;7.37;;;;;;;17.82;100.00;100455.97;4917299;29;20065;-53
2022/02/20 08:50:31;;;;;;;30.17;7.10;;;;;;;17.82;100.00;100454.09;4916140;29;20036;-55
2022/02/20 08:52:56;;;;;;;28.57;7.20;;;;;;;17.33;100.00;100452.16;4900136;29;20300;-52
2022/02/20 08:55:23;;;;;;;24.70;7.90;;;;;;;17.58;100.00;100443.56;4900485;29;20049;-53
2022/02/20 08:57:49;;;;;;;38.55;8.90;;;;;;;16.87;100.00;100433.41;4911909;29;20060;-47
2022/02/20 09:00:15;;;;;;;33.58;9.38;;;;;;;16.57;100.00;100434.53;4912578;29;20086;-53
2022/02/20 09:02:41;;;;;;;32.92;9.18;;;;;;;17.57;100.00;100431.13;4914582;29;20041;-50
2022/02/20 09:05:07;;;;;;;34.42;9.18;;;;;;;16.55;100.00;100458.25;4906635;29;20080;-53
2022/02/20 09:07:33;;;;;;;50.78;9.38;;;;;;;16.73;100.00;100457.22;4918408;29;20036;-50
2022/02/20 09:09:59;;;;;;;40.63;10.80;;;;;;;16.72;100.00;100467.19;4902107;29;20067;-53
2022/02/20 09:12:24;;;;;;;35.43;10.00;;;;;;;17.30;100.00;100445.38;4902129;29;20033;-51
2022/02/20 09:14:49;;;;;;;34.22;8.93;;;;;;;17.60;100.00;100441.41;4913830;29;20130;-50
2022/02/20 09:17:15;;;;;;;35.10;12.20;;;;;;;17.24;100.00;100430.16;4890465;29;20052;-52
2022/02/20 09:19:40;;;;;;;24.50;8.07;;;;;;;16.83;100.00;100449.28;4918101;29;20049;-54
2022/02/20 09:22:07;;;;;;;45.83;11.23;;;;;;;18.01;100.00;100438.38;4918310;29;20036;-51
2022/02/20 09:24:32;;;;;;;38.08;9.93;;;;;;;17.74;100.00;100424.78;4902696;29;20056;-52
2022/02/20 09:26:58;;;;;;;40.97;9.63;;;;;;;17.33;100.00;100427.84;4918335;29;20056;-52
2022/02/20 09:29:23;;;;;;;44.27;9.97;;;;;;;17.48;100.00;100432.59;4918367;29;20066;-52
2022/02/20 09:31:48;;;;;;;29.90;8.53;;;;;;;17.37;100.00;100437.06;4905819;29;20041;-52
2022/02/20 09:34:14;;;;;;;40.08;9.40;;;;;;;17.83;100.00;100428.69;4898714;29;20383;-51
2022/02/20 09:36:40;;;;;;;24.50;8.53;;;;;;;17.32;100.00;100428.91;4915294;29;20037;-52
2022/02/20 09:39:06;;;;;;;44.10;10.07;;;;;;;18.04;100.00;100426.22;4906169;29;20118;-51
2022/02/20 09:41:31;;;;;;;36.80;9.07;;;;;;;17.96;100.00;100440.16;4908065;29;20101;-50
2022/02/20 09:43:59;;;;;;;41.10;9.93;;;;;;;18.18;100.00;100446.38;4912715;29;20040;-50
2022/02/20 09:46:25;;;;;;;48.43;9.13;;;;;;;18.41;100.00;100428.16;4900969;29;20037;-52
2022/02/20 09:48:53;;;;;;;54.33;9.98;;;;;;;17.93;100.00;100455.03;4903945;29;20268;-50
2022/02/20 09:51:19;;;;;;;39.53;7.80;;;;;;;17.45;100.00;100433.13;4909391;29;20037;-54
2022/02/20 09:53:45;;;;;;;47.60;8.20;;;;;;;17.83;100.00;100455.75;4911231;29;20324;-50
2022/02/20 09:56:10;;;;;;;42.47;9.87;;;;;;;17.69;100.00;100438.25;4906087;29;20041;-52
2022/02/20 09:58:36;;;;;;;45.33;9.60;;;;;;;17.97;100.00;100430.97;4921318;29;20032;-49
2022/02/20 10:01:05;;;;;;;50.37;10.23;;;;;;;17.74;100.00;100419.38;4921988;29;20072;-50
2022/02/20 10:03:38;;;;;;;51.93;9.73;;;;;;;17.74;100.00;100409.41;4911593;29;20070;-50
2022/02/20 10:06:08;;;;;;;53.33;10.23;;;;;;;17.18;100.00;100420.34;4917301;29;20283;-50
2022/02/20 10:08:44;;;;;;;49.57;7.80;;;;;;;16.80;100.00;100417.38;4921675;29;20279;-51
2022/02/20 10:11:30;;;;;;;58.67;10.50;;;;;;;17.83;100.00;100396.22;4905049;29;20276;-46
2022/02/20 10:14:04;;;;;;;35.27;7.30;;;;;;;17.33;100.00;100404.34;4908859;29;20355;-53
2022/02/20 10:16:32;;;;;;;41.10;7.50;;;;;;;17.55;100.00;100403.50;4917638;29;20271;-52
2022/02/20 10:18:59;;;;;;;48.03;6.80;;;;;;;17.12;100.00;100408.66;4902762;29;20370;-48
2022/02/20 10:21:48;;;;;;;45.07;8.00;;;;;;;17.62;100.00;100428.47;4914540;29;20314;-47
2022/02/20 10:24:20;;;;;;;61.10;8.77;;;;;;;16.94;100.00;100407.03;4906018;29;20284;-51
2022/02/20 10:27:08;;;;;;;47.57;7.60;;;;;;;17.28;100.00;100427.78;4921710;29;20048;-49
2022/02/20 10:30:08;;;;;;;39.83;7.23;;;;;;;17.31;100.00;100454.28;4921865;29;20302;-50
2022/02/20 10:32:33;;;;;;;45.17;7.53;;;;;;;17.39;100.00;100439.53;4905327;29;20316;-48
2022/02/20 10:35:15;;;;;;;49.78;7.32;;;;;;;17.27;100.00;100443.16;4915987;29;20276;-50
2022/02/20 10:37:41;;;;;;;57.87;8.60;;;;;;;17.01;100.00;100450.09;4913486;29;20120;-51
2022/02/20 10:40:27;;;;;;;44.33;8.07;;;;;;;17.36;100.00;100450.84;4907028;29;20295;-48
2022/02/20 10:42:54;;;;;;;48.63;8.40;;;;;;;17.45;100.00;100460.16;4907248;29;20047;-52
2022/02/20 10:45:29;;;;;;;43.40;7.20;;;;;;;16.81;100.00;100504.56;4913244;29;20299;-51
2022/02/20 10:47:55;;;;;;;68.60;9.00;;;;;;;17.16;100.00;100455.72;4902058;29;20307;-47
2022/02/20 10:50:24;;;;;;;57.70;9.07;;;;;;;17.24;100.00;100440.94;4917664;29;20343;-50
2022/02/20 10:53:20;;;;;;;54.43;8.63;;;;;;;16.85;100.00;100457.94;4906698;29;20041;-50
2022/02/20 10:55:47;;;;;;;60.20;10.50;;;;;;;17.01;100.00;100423.09;4920851;29;20820;-53
2022/02/20 10:58:24;;;;;;;48.83;10.50;;;;;;;17.05;100.00;100451.25;4905954;29;20309;-53
2022/02/20 11:00:50;;;;;;;54.08;7.28;;;;;;;16.75;100.00;100425.41;4906102;29;20307;-49
2022/02/20 11:03:17;;;;;;;55.43;8.03;;;;;;;16.85;100.00;100430.94;4913494;29;20078;-47
2022/02/20 11:05:43;;;;;;;47.27;8.20;;;;;;;17.62;100.00;100425.75;4912907;29;20032;-51
2022/02/20 11:08:09;;;;;;;53.20;7.63;;;;;;;17.13;100.00;100425.69;4916835;29;20343;-51
2022/02/20 11:10:37;;;;;;;51.80;7.27;;;;;;;17.36;100.00;100440.03;4905152;29;20041;-49
2022/02/20 11:13:03;;;;;;;74.83;10.13;;;;;;;16.30;100.00;100436.03;4914922;29;20288;-49
2022/02/20 11:15:30;;;;;;;59.97;8.88;;;;;;;16.81;100.00;100423.56;4911199;29;20307;-51
2022/02/20 11:18:00;;;;;;;58.30;8.03;;;;;;;16.44;100.00;100411.41;4903854;29;20044;-48
2022/02/20 11:20:28;;;;;;;58.97;7.70;;;;;;;16.98;100.00;100401.97;4919244;29;20318;-55
2022/02/20 11:22:55;;;;;;;47.30;8.30;;;;;;;16.28;100.00;100394.16;4906557;29;20275;-55
2022/02/20 11:25:21;;;;;;;60.10;9.50;;;;;;;16.61;100.00;100387.94;4920741;29;20291;-54
2022/02/20 11:27:48;;;;;;;;;;;;;;;16.27;100.00;100400.59;4909443;29;20378;-52